sensor_id;sensor_type;location;lat;lon;timestamp;P1;durP1;ratioP1;P2;durP2;ratioP2
41761;SDS011;27441;50.860;0.258;2022-12-18T12:45:51;12.30;;;9.57;;
41761;SDS011;27441;50.860;0.258;2022-12-18T12:51:16;23.53;;;12.13;;
41761;SDS011;27441;50.860;0.258;2022-12-18T12:53:51;7.87;;;7.27;;
41761;SDS011;27441;50.860;0.258;2022-12-18T12:56:19;9.40;;;8.43;;
41761;SDS011;27441;50.860;0.258;2022-12-18T12:58:49;9.53;;;8.70;;
41761;SDS011;27441;50.860;0.258;2022-12-18T13:01:41;19.13;;;13.23;;
41761;SDS011;27441;50.860;0.258;2022-12-18T13:07:24;9.70;;;8.77;;
41761;SDS011;27441;50.860;0.258;2022-12-18T13:10:40;6.60;;;6.20;;
41761;SDS011;27441;50.860;0.258;2022-12-18T13:15:25;16.00;;;11.20;;
41761;SDS011;27441;50.860;0.258;2022-12-18T13:18:05;7.20;;;6.70;;
41761;SDS011;27441;50.860;0.258;2022-12-18T13:20:38;22.80;;;9.50;;
41761;SDS011;27441;50.860;0.258;2022-12-18T13:25:51;21.93;;;14.93;;
41761;SDS011;27441;50.860;0.258;2022-12-18T13:34:25;10.17;;;9.17;;
41761;SDS011;27441;50.860;0.258;2022-12-18T13:36:55;9.77;;;8.90;;
41761;SDS011;27441;50.860;0.258;2022-12-18T13:39:53;9.00;;;8.17;;
41761;SDS011;27441;50.860;0.258;2022-12-18T13:45:37;9.73;;;8.93;;
41761;SDS011;27441;50.860;0.258;2022-12-18T13:48:30;11.73;;;8.37;;
41761;SDS011;27441;50.860;0.258;2022-12-18T13:51:00;12.33;;;9.93;;
41761;SDS011;27441;50.860;0.258;2022-12-18T13:56:17;16.47;;;10.83;;
41761;SDS011;27441;50.860;0.258;2022-12-18T13:59:02;14.33;;;10.07;;
41761;SDS011;27441;50.860;0.258;2022-12-18T14:01:36;7.67;;;7.07;;
41761;SDS011;27441;50.860;0.258;2022-12-18T14:04:18;8.63;;;7.97;;
41761;SDS011;27441;50.860;0.258;2022-12-18T14:06:46;11.50;;;9.43;;
41761;SDS011;27441;50.860;0.258;2022-12-18T14:09:15;5.77;;;5.37;;
41761;SDS011;27441;50.860;0.258;2022-12-18T14:11:48;15.80;;;10.57;;
41761;SDS011;27441;50.860;0.258;2022-12-18T14:14:16;8.10;;;7.50;;
41761;SDS011;27441;50.860;0.258;2022-12-18T14:16:42;12.40;;;9.60;;
41761;SDS011;27441;50.860;0.258;2022-12-18T14:19:12;8.37;;;7.63;;
41761;SDS011;27441;50.860;0.258;2022-12-18T14:21:46;7.90;;;7.13;;
41761;SDS011;27441;50.860;0.258;2022-12-18T14:24:14;8.37;;;7.63;;
41761;SDS011;27441;50.860;0.258;2022-12-18T14:26:41;26.83;;;13.33;;
41761;SDS011;27441;50.860;0.258;2022-12-18T14:29:23;11.87;;;10.70;;
41761;SDS011;27441;50.860;0.258;2022-12-18T14:32:10;13.63;;;8.80;;
41761;SDS011;27441;50.860;0.258;2022-12-18T14:34:42;10.63;;;8.83;;
41761;SDS011;27441;50.860;0.258;2022-12-18T14:37:12;10.50;;;9.50;;
41761;SDS011;27441;50.860;0.258;2022-12-18T14:39:39;6.32;;;5.93;;
41761;SDS011;27441;50.860;0.258;2022-12-18T14:42:16;8.70;;;7.90;;
41761;SDS011;27441;50.860;0.258;2022-12-18T14:44:42;10.57;;;9.57;;
41761;SDS011;27441;50.860;0.258;2022-12-18T14:47:13;12.40;;;7.23;;
41761;SDS011;27441;50.860;0.258;2022-12-18T14:49:40;10.85;;;9.32;;
41761;SDS011;27441;50.860;0.258;2022-12-18T14:52:17;6.40;;;6.00;;
41761;SDS011;27441;50.860;0.258;2022-12-18T14:54:52;16.27;;;6.80;;
41761;SDS011;27441;50.860;0.258;2022-12-18T14:57:22;7.60;;;7.10;;
41761;SDS011;27441;50.860;0.258;2022-12-18T15:00:14;6.30;;;5.85;;
41761;SDS011;27441;50.860;0.258;2022-12-18T15:02:42;7.73;;;7.13;;
41761;SDS011;27441;50.860;0.258;2022-12-18T15:18:05;8.77;;;8.10;;
41761;SDS011;27441;50.860;0.258;2022-12-18T15:20:42;11.73;;;8.10;;
41761;SDS011;27441;50.860;0.258;2022-12-18T15:23:17;12.67;;;9.17;;
41761;SDS011;27441;50.860;0.258;2022-12-18T15:25:43;15.40;;;9.13;;
41761;SDS011;27441;50.860;0.258;2022-12-18T15:28:21;8.03;;;7.33;;
41761;SDS011;27441;50.860;0.258;2022-12-18T15:33:40;6.75;;;6.25;;
41761;SDS011;27441;50.860;0.258;2022-12-18T15:36:18;8.20;;;7.40;;
41761;SDS011;27441;50.860;0.258;2022-12-18T15:38:49;26.53;;;7.93;;
41761;SDS011;27441;50.860;0.258;2022-12-18T15:41:16;13.33;;;10.70;;
41761;SDS011;27441;50.860;0.258;2022-12-18T15:43:44;13.73;;;8.53;;
41761;SDS011;27441;50.860;0.258;2022-12-18T15:46:12;17.00;;;9.87;;
41761;SDS011;27441;50.860;0.258;2022-12-18T15:48:43;13.53;;;10.53;;
41761;SDS011;27441;50.860;0.258;2022-12-18T15:51:15;8.07;;;7.13;;
41761;SDS011;27441;50.860;0.258;2022-12-18T15:53:45;17.07;;;9.20;;
41761;SDS011;27441;50.860;0.258;2022-12-18T15:56:12;7.90;;;7.13;;
41761;SDS011;27441;50.860;0.258;2022-12-18T15:58:58;9.67;;;8.63;;
41761;SDS011;27441;50.860;0.258;2022-12-18T16:01:28;15.53;;;10.20;;
41761;SDS011;27441;50.860;0.258;2022-12-18T16:03:56;14.18;;;10.73;;
41761;SDS011;27441;50.860;0.258;2022-12-18T16:06:22;17.17;;;9.70;;
41761;SDS011;27441;50.860;0.258;2022-12-18T16:08:48;14.47;;;11.47;;
41761;SDS011;27441;50.860;0.258;2022-12-18T16:11:21;13.40;;;10.70;;
41761;SDS011;27441;50.860;0.258;2022-12-18T16:16:49;6.60;;;6.10;;
41761;SDS011;27441;50.860;0.258;2022-12-18T16:19:17;13.70;;;12.33;;
41761;SDS011;27441;50.860;0.258;2022-12-18T16:21:44;21.53;;;8.47;;
41761;SDS011;27441;50.860;0.258;2022-12-18T16:24:18;17.33;;;11.53;;
41761;SDS011;27441;50.860;0.258;2022-12-18T16:26:49;21.13;;;7.67;;
41761;SDS011;27441;50.860;0.258;2022-12-18T16:29:16;10.17;;;8.07;;
41761;SDS011;27441;50.860;0.258;2022-12-18T16:31:44;138.00;;;28.37;;
41761;SDS011;27441;50.860;0.258;2022-12-18T16:34:13;18.90;;;11.97;;
41761;SDS011;27441;50.860;0.258;2022-12-18T16:36:47;13.43;;;9.97;;
41761;SDS011;27441;50.860;0.258;2022-12-18T16:39:14;13.17;;;9.50;;
41761;SDS011;27441;50.860;0.258;2022-12-18T16:41:39;18.00;;;11.77;;
41761;SDS011;27441;50.860;0.258;2022-12-18T16:44:05;13.83;;;9.87;;
41761;SDS011;27441;50.860;0.258;2022-12-18T16:46:31;10.70;;;8.93;;
41761;SDS011;27441;50.860;0.258;2022-12-18T16:48:58;15.43;;;9.53;;
41761;SDS011;27441;50.860;0.258;2022-12-18T16:51:24;6.70;;;6.27;;
41761;SDS011;27441;50.860;0.258;2022-12-18T16:53:54;11.13;;;9.83;;
41761;SDS011;27441;50.860;0.258;2022-12-18T16:56:20;15.43;;;12.67;;
41761;SDS011;27441;50.860;0.258;2022-12-18T16:58:53;44.60;;;9.00;;
41761;SDS011;27441;50.860;0.258;2022-12-18T17:01:20;9.47;;;7.43;;
41761;SDS011;27441;50.860;0.258;2022-12-18T17:03:56;6.77;;;6.17;;
41761;SDS011;27441;50.860;0.258;2022-12-18T17:06:27;8.37;;;7.70;;
41761;SDS011;27441;50.860;0.258;2022-12-18T17:08:55;6.00;;;5.63;;
41761;SDS011;27441;50.860;0.258;2022-12-18T17:11:25;7.37;;;6.63;;
41761;SDS011;27441;50.860;0.258;2022-12-18T17:13:53;6.73;;;6.13;;
41761;SDS011;27441;50.860;0.258;2022-12-18T17:16:19;6.43;;;5.93;;
41761;SDS011;27441;50.860;0.258;2022-12-18T17:18:45;8.23;;;7.03;;
41761;SDS011;27441;50.860;0.258;2022-12-18T17:21:11;7.43;;;6.80;;
41761;SDS011;27441;50.860;0.258;2022-12-18T17:23:39;8.97;;;7.67;;
41761;SDS011;27441;50.860;0.258;2022-12-18T17:26:05;7.20;;;6.70;;
41761;SDS011;27441;50.860;0.258;2022-12-18T17:28:32;6.93;;;6.53;;
41761;SDS011;27441;50.860;0.258;2022-12-18T17:30:59;11.47;;;8.13;;
41761;SDS011;27441;50.860;0.258;2022-12-18T17:33:25;14.43;;;8.13;;
41761;SDS011;27441;50.860;0.258;2022-12-18T17:35:52;5.70;;;5.40;;
41761;SDS011;27441;50.860;0.258;2022-12-18T17:38:18;9.10;;;8.27;;
41761;SDS011;27441;50.860;0.258;2022-12-18T17:40:44;20.20;;;7.27;;
41761;SDS011;27441;50.860;0.258;2022-12-18T17:43:10;16.20;;;7.40;;
41761;SDS011;27441;50.860;0.258;2022-12-18T17:45:39;12.63;;;7.50;;
41761;SDS011;27441;50.860;0.258;2022-12-18T17:48:05;8.80;;;7.27;;
41761;SDS011;27441;50.860;0.258;2022-12-18T17:50:32;5.63;;;5.33;;
41761;SDS011;27441;50.860;0.258;2022-12-18T17:52:58;7.77;;;7.17;;
41761;SDS011;27441;50.860;0.258;2022-12-18T17:55:25;8.33;;;7.53;;
41761;SDS011;27441;50.860;0.258;2022-12-18T17:57:51;12.23;;;8.20;;
41761;SDS011;27441;50.860;0.258;2022-12-18T18:00:17;9.17;;;8.27;;
41761;SDS011;27441;50.860;0.258;2022-12-18T18:02:43;7.03;;;6.43;;
41761;SDS011;27441;50.860;0.258;2022-12-18T18:05:11;5.43;;;5.13;;
41761;SDS011;27441;50.860;0.258;2022-12-18T18:07:37;10.53;;;9.17;;
41761;SDS011;27441;50.860;0.258;2022-12-18T18:10:04;6.07;;;5.67;;
41761;SDS011;27441;50.860;0.258;2022-12-18T18:12:31;1410.87;;;685.47;;
41761;SDS011;27441;50.860;0.258;2022-12-18T18:17:41;1999.90;;;999.90;;
41761;SDS011;27441;50.860;0.258;2022-12-18T18:20:07;1999.90;;;999.90;;
41761;SDS011;27441;50.860;0.258;2022-12-18T18:22:33;1999.90;;;999.90;;
41761;SDS011;27441;50.860;0.258;2022-12-18T18:25:00;1999.90;;;999.90;;
41761;SDS011;27441;50.860;0.258;2022-12-18T18:27:27;1999.90;;;999.90;;
41761;SDS011;27441;50.860;0.258;2022-12-18T18:29:55;1999.90;;;999.90;;
41761;SDS011;27441;50.860;0.258;2022-12-18T18:32:20;1999.90;;;999.90;;
41761;SDS011;27441;50.860;0.258;2022-12-18T18:34:46;1999.90;;;999.90;;
41761;SDS011;27441;50.860;0.258;2022-12-18T18:37:12;1999.90;;;999.90;;
41761;SDS011;27441;50.860;0.258;2022-12-18T18:39:38;1999.90;;;999.90;;
41761;SDS011;27441;50.860;0.258;2022-12-18T18:42:04;1999.90;;;999.90;;
41761;SDS011;27441;50.860;0.258;2022-12-18T18:44:30;1999.90;;;999.90;;
41761;SDS011;27441;50.860;0.258;2022-12-18T18:49:22;15.47;;;13.80;;
41761;SDS011;27441;50.860;0.258;2022-12-18T18:51:51;17.67;;;13.60;;
41761;SDS011;27441;50.860;0.258;2022-12-18T18:54:18;13.97;;;13.07;;
41761;SDS011;27441;50.860;0.258;2022-12-18T18:56:44;13.50;;;12.10;;
41761;SDS011;27441;50.860;0.258;2022-12-18T18:59:12;12.67;;;11.60;;
41761;SDS011;27441;50.860;0.258;2022-12-18T19:01:37;15.47;;;14.33;;
41761;SDS011;27441;50.860;0.258;2022-12-18T19:04:03;15.43;;;14.00;;
41761;SDS011;27441;50.860;0.258;2022-12-18T19:06:29;16.90;;;14.73;;
41761;SDS011;27441;50.860;0.258;2022-12-18T19:08:56;12.03;;;11.27;;
41761;SDS011;27441;50.860;0.258;2022-12-18T19:11:23;23.40;;;15.60;;
41761;SDS011;27441;50.860;0.258;2022-12-18T19:14:09;11.83;;;11.03;;
41761;SDS011;27441;50.860;0.258;2022-12-18T19:16:37;12.87;;;11.90;;
41761;SDS011;27441;50.860;0.258;2022-12-18T19:19:04;12.50;;;11.60;;
41761;SDS011;27441;50.860;0.258;2022-12-18T19:21:30;12.77;;;11.87;;
41761;SDS011;27441;50.860;0.258;2022-12-18T19:23:57;15.57;;;14.30;;
41761;SDS011;27441;50.860;0.258;2022-12-18T19:26:23;13.33;;;12.33;;
41761;SDS011;27441;50.860;0.258;2022-12-18T19:28:49;26.37;;;15.10;;
41761;SDS011;27441;50.860;0.258;2022-12-18T19:31:15;12.53;;;11.67;;
41761;SDS011;27441;50.860;0.258;2022-12-18T19:33:42;12.00;;;11.20;;
41761;SDS011;27441;50.860;0.258;2022-12-18T19:38:43;13.77;;;12.73;;
41761;SDS011;27441;50.860;0.258;2022-12-18T19:41:09;13.90;;;12.80;;
41761;SDS011;27441;50.860;0.258;2022-12-18T19:43:36;12.57;;;11.37;;
41761;SDS011;27441;50.860;0.258;2022-12-18T19:46:02;13.27;;;12.37;;
41761;SDS011;27441;50.860;0.258;2022-12-18T19:48:32;13.20;;;12.30;;
41761;SDS011;27441;50.860;0.258;2022-12-18T19:51:06;14.43;;;13.33;;
41761;SDS011;27441;50.860;0.258;2022-12-18T19:55:57;12.90;;;12.00;;
41761;SDS011;27441;50.860;0.258;2022-12-18T19:58:23;12.23;;;11.43;;
41761;SDS011;27441;50.860;0.258;2022-12-18T20:00:49;13.00;;;11.90;;
41761;SDS011;27441;50.860;0.258;2022-12-18T20:03:14;11.82;;;11.02;;
41761;SDS011;27441;50.860;0.258;2022-12-18T20:05:40;14.43;;;13.33;;
41761;SDS011;27441;50.860;0.258;2022-12-18T20:10:31;12.38;;;11.57;;
41761;SDS011;27441;50.860;0.258;2022-12-18T20:12:58;12.43;;;11.63;;
41761;SDS011;27441;50.860;0.258;2022-12-18T20:15:24;14.03;;;13.03;;
41761;SDS011;27441;50.860;0.258;2022-12-18T20:17:50;13.13;;;12.33;;
41761;SDS011;27441;50.860;0.258;2022-12-18T20:20:16;12.97;;;12.07;;
41761;SDS011;27441;50.860;0.258;2022-12-18T20:22:42;12.37;;;11.57;;
41761;SDS011;27441;50.860;0.258;2022-12-18T20:25:08;13.50;;;12.40;;
41761;SDS011;27441;50.860;0.258;2022-12-18T20:27:34;12.13;;;11.32;;
41761;SDS011;27441;50.860;0.258;2022-12-18T20:30:00;14.02;;;12.95;;
41761;SDS011;27441;50.860;0.258;2022-12-18T20:37:16;12.70;;;11.70;;
41761;SDS011;27441;50.860;0.258;2022-12-18T20:39:42;22.07;;;14.17;;
41761;SDS011;27441;50.860;0.258;2022-12-18T20:42:08;12.02;;;11.20;;
41761;SDS011;27441;50.860;0.258;2022-12-18T20:44:34;9.13;;;8.52;;
41761;SDS011;27441;50.860;0.258;2022-12-18T20:46:59;12.57;;;11.77;;
41761;SDS011;27441;50.860;0.258;2022-12-18T20:49:27;16.08;;;14.57;;
41761;SDS011;27441;50.860;0.258;2022-12-18T20:51:53;14.70;;;13.77;;
41761;SDS011;27441;50.860;0.258;2022-12-18T20:56:47;14.27;;;13.27;;
41761;SDS011;27441;50.860;0.258;2022-12-18T21:01:38;13.02;;;12.23;;
41761;SDS011;27441;50.860;0.258;2022-12-18T21:04:04;13.53;;;12.57;;
41761;SDS011;27441;50.860;0.258;2022-12-18T21:06:30;16.63;;;15.38;;
41761;SDS011;27441;50.860;0.258;2022-12-18T21:14:09;16.08;;;14.57;;
41761;SDS011;27441;50.860;0.258;2022-12-18T21:16:35;17.20;;;15.95;;
41761;SDS011;27441;50.860;0.258;2022-12-18T21:19:01;21.30;;;17.83;;
41761;SDS011;27441;50.860;0.258;2022-12-18T21:21:27;18.00;;;16.55;;
41761;SDS011;27441;50.860;0.258;2022-12-18T21:23:53;18.27;;;15.40;;
41761;SDS011;27441;50.860;0.258;2022-12-18T21:26:25;15.88;;;14.88;;
41761;SDS011;27441;50.860;0.258;2022-12-18T21:28:56;16.05;;;14.95;;
41761;SDS011;27441;50.860;0.258;2022-12-18T21:31:30;16.10;;;15.10;;
41761;SDS011;27441;50.860;0.258;2022-12-18T21:33:58;15.95;;;14.95;;
41761;SDS011;27441;50.860;0.258;2022-12-18T21:36:24;17.00;;;15.80;;
41761;SDS011;27441;50.860;0.258;2022-12-18T21:38:51;18.00;;;16.65;;
41761;SDS011;27441;50.860;0.258;2022-12-18T21:41:17;14.90;;;13.90;;
41761;SDS011;27441;50.860;0.258;2022-12-18T21:44:02;16.55;;;15.45;;
41761;SDS011;27441;50.860;0.258;2022-12-18T21:46:38;20.23;;;18.52;;
41761;SDS011;27441;50.860;0.258;2022-12-18T21:49:06;17.42;;;16.33;;
41761;SDS011;27441;50.860;0.258;2022-12-18T21:51:32;18.25;;;17.00;;
41761;SDS011;27441;50.860;0.258;2022-12-18T21:56:40;29.58;;;20.50;;
41761;SDS011;27441;50.860;0.258;2022-12-18T22:02:00;20.17;;;18.67;;
41761;SDS011;27441;50.860;0.258;2022-12-18T22:04:31;23.33;;;21.83;;
41761;SDS011;27441;50.860;0.258;2022-12-18T22:06:57;352.38;;;98.60;;
41761;SDS011;27441;50.860;0.258;2022-12-18T22:09:25;12.98;;;10.85;;
41761;SDS011;27441;50.860;0.258;2022-12-18T22:11:51;11.80;;;10.75;;
41761;SDS011;27441;50.860;0.258;2022-12-18T22:14:17;14.82;;;12.77;;
41761;SDS011;27441;50.860;0.258;2022-12-18T22:16:44;14.38;;;13.30;;
41761;SDS011;27441;50.860;0.258;2022-12-18T22:19:10;11.20;;;10.25;;
41761;SDS011;27441;50.860;0.258;2022-12-18T22:21:39;9.90;;;9.30;;
41761;SDS011;27441;50.860;0.258;2022-12-18T22:24:08;14.07;;;10.70;;
41761;SDS011;27441;50.860;0.258;2022-12-18T22:26:37;10.60;;;9.80;;
41761;SDS011;27441;50.860;0.258;2022-12-18T22:29:03;10.57;;;9.88;;
41761;SDS011;27441;50.860;0.258;2022-12-18T22:31:48;20.92;;;14.10;;
41761;SDS011;27441;50.860;0.258;2022-12-18T22:34:14;40.72;;;15.40;;
41761;SDS011;27441;50.860;0.258;2022-12-18T22:36:49;9.68;;;9.07;;
41761;SDS011;27441;50.860;0.258;2022-12-18T22:44:08;12.55;;;11.50;;
41761;SDS011;27441;50.860;0.258;2022-12-18T22:46:37;11.85;;;10.98;;
41761;SDS011;27441;50.860;0.258;2022-12-18T22:51:32;28.23;;;12.65;;
41761;SDS011;27441;50.860;0.258;2022-12-18T22:53:57;9.82;;;9.20;;
41761;SDS011;27441;50.860;0.258;2022-12-18T22:56:23;11.38;;;10.35;;
41761;SDS011;27441;50.860;0.258;2022-12-18T22:58:49;10.98;;;9.93;;
41761;SDS011;27441;50.860;0.258;2022-12-18T23:01:19;34.78;;;13.88;;
41761;SDS011;27441;50.860;0.258;2022-12-18T23:03:47;12.70;;;11.30;;
41761;SDS011;27441;50.860;0.258;2022-12-18T23:06:13;12.30;;;11.00;;
41761;SDS011;27441;50.860;0.258;2022-12-18T23:08:39;10.05;;;9.32;;
41761;SDS011;27441;50.860;0.258;2022-12-18T23:11:05;13.35;;;10.38;;
41761;SDS011;27441;50.860;0.258;2022-12-18T23:13:31;11.50;;;10.52;;
41761;SDS011;27441;50.860;0.258;2022-12-18T23:15:58;9.98;;;9.20;;
41761;SDS011;27441;50.860;0.258;2022-12-18T23:18:24;10.65;;;9.75;;
41761;SDS011;27441;50.860;0.258;2022-12-18T23:23:15;8.90;;;8.30;;
41761;SDS011;27441;50.860;0.258;2022-12-18T23:25:41;15.75;;;14.27;;
41761;SDS011;27441;50.860;0.258;2022-12-18T23:28:07;9.40;;;8.80;;
41761;SDS011;27441;50.860;0.258;2022-12-18T23:30:33;10.48;;;9.68;;
41761;SDS011;27441;50.860;0.258;2022-12-18T23:35:25;10.43;;;9.63;;
41761;SDS011;27441;50.860;0.258;2022-12-18T23:40:16;17.20;;;10.55;;
41761;SDS011;27441;50.860;0.258;2022-12-18T23:42:42;8.73;;;8.13;;
41761;SDS011;27441;50.860;0.258;2022-12-18T23:45:08;8.98;;;8.43;;
41761;SDS011;27441;50.860;0.258;2022-12-18T23:47:34;21.08;;;11.07;;
41761;SDS011;27441;50.860;0.258;2022-12-18T23:50:00;8.93;;;8.32;;
41761;SDS011;27441;50.860;0.258;2022-12-18T23:52:26;8.68;;;8.18;;
41761;SDS011;27441;50.860;0.258;2022-12-18T23:54:51;9.38;;;8.75;;
41761;SDS011;27441;50.860;0.258;2022-12-18T23:57:17;8.10;;;7.60;;
41761;SDS011;27441;50.860;0.258;2022-12-18T23:59:43;10.05;;;9.10;;
